createdAt,value
2023-05-05T00:01:47.733Z,97082.53
2023-05-05T00:04:14.309Z,97088.47
2023-05-05T00:06:40.914Z,97089.44
2023-05-05T00:09:07.439Z,97087.19
2023-05-05T00:11:33.967Z,97084.34
2023-05-05T00:14:02.759Z,97085.09
2023-05-05T00:16:31.631Z,97081.31
2023-05-05T00:19:00.545Z,97090.28
2023-05-05T00:21:29.440Z,97094.53
2023-05-05T00:23:58.391Z,97089.19
2023-05-05T00:26:24.952Z,97093.22
2023-05-05T00:28:53.990Z,97089.75
2023-05-05T00:31:21.009Z,97091.38
2023-05-05T00:33:50.081Z,97085.38
2023-05-05T00:36:16.646Z,97086.97
2023-05-05T00:38:47.945Z,97082.97
2023-05-05T00:41:16.870Z,97081.13
2023-05-05T00:43:45.742Z,97075.44
2023-05-05T00:46:30.630Z,97075.31
2023-05-05T00:48:58.205Z,97077.94
2023-05-05T00:51:27.978Z,97080.63
2023-05-05T00:53:57.177Z,97079.25
2023-05-05T00:56:27.426Z,97077.16
2023-05-05T00:58:54.287Z,97083.94
2023-05-05T01:01:20.908Z,97077.91
2023-05-05T01:03:49.884Z,97082.72
2023-05-05T01:06:19.179Z,97079.56
2023-05-05T01:09:02.115Z,97078.66
2023-05-05T01:11:48.768Z,97076.59
2023-05-05T01:14:34.198Z,97074.97
2023-05-05T01:17:12.648Z,97074.88
2023-05-05T01:20:08.090Z,97077.13
2023-05-05T01:22:41.533Z,97081.72
2023-05-05T01:25:27.175Z,97078.47
2023-05-05T01:28:28.417Z,97086.88
2023-05-05T01:31:19.743Z,97084.91
2023-05-05T01:33:55.112Z,97078.25
2023-05-05T01:36:28.642Z,97084.22
2023-05-05T01:39:01.985Z,97069.88
2023-05-05T01:41:47.311Z,97079.66
2023-05-05T01:44:19.976Z,97079.00
2023-05-05T01:46:51.883Z,97081.66
2023-05-05T01:49:21.064Z,97086.91
2023-05-05T01:51:52.397Z,97082.72
2023-05-05T01:54:20.315Z,97072.91
2023-05-05T01:56:49.263Z,97081.50
2023-05-05T01:59:21.071Z,97087.00
2023-05-05T02:01:49.476Z,97095.16
2023-05-05T02:04:18.599Z,97096.25
2023-05-05T02:06:50.456Z,97087.78
2023-05-05T02:09:19.724Z,97083.53
2023-05-05T02:11:49.354Z,97085.75
2023-05-05T02:14:19.264Z,97087.38
2023-05-05T02:16:46.850Z,97087.59
2023-05-05T02:19:16.833Z,97093.41
2023-05-05T02:21:46.321Z,97088.50
2023-05-05T02:24:12.967Z,97090.66
2023-05-05T02:26:44.188Z,97087.59
2023-05-05T02:29:15.365Z,97082.28
2023-05-05T02:31:57.833Z,97092.84
2023-05-05T02:34:27.489Z,97086.25
2023-05-05T02:36:58.432Z,97097.59
2023-05-05T02:39:39.368Z,97094.31
2023-05-05T02:42:13.218Z,97097.78
2023-05-05T02:44:44.510Z,97097.88
2023-05-05T02:47:13.716Z,97096.81
2023-05-05T02:49:43.760Z,97097.09
2023-05-05T02:52:12.958Z,97091.59
2023-05-05T02:54:42.214Z,97097.06
2023-05-05T02:57:14.808Z,97090.41
2023-05-05T02:59:49.499Z,97089.81
2023-05-05T03:02:23.220Z,97082.81
2023-05-05T03:04:56.724Z,97082.69
2023-05-05T03:07:30.963Z,97081.50
2023-05-05T03:10:09.691Z,97086.47
2023-05-05T03:15:49.417Z,97078.91
2023-05-05T03:18:25.167Z,97072.97
2023-05-05T03:20:57.454Z,97084.00
2023-05-05T03:23:28.896Z,97078.41
2023-05-05T03:25:55.504Z,97091.09
2023-05-05T03:28:22.134Z,97090.34
2023-05-05T03:30:48.750Z,97091.38
2023-05-05T03:33:15.985Z,97080.47
2023-05-05T03:35:42.533Z,97081.25
2023-05-05T03:38:11.665Z,97081.16
2023-05-05T03:40:44.486Z,97079.81
2023-05-05T03:43:13.787Z,97079.63
2023-05-05T03:45:40.363Z,97082.69
2023-05-05T03:48:10.139Z,97081.59
2023-05-05T03:50:39.010Z,97077.25
2023-05-05T03:53:05.570Z,97069.09
2023-05-05T03:55:32.185Z,97075.56
2023-05-05T03:57:58.742Z,97081.84
2023-05-05T04:00:27.636Z,97080.91
2023-05-05T04:02:56.595Z,97080.47
2023-05-05T04:05:26.056Z,97084.03
2023-05-05T04:07:52.613Z,97080.81
2023-05-05T04:10:19.181Z,97083.38
2023-05-05T04:12:46.314Z,97081.16
2023-05-05T04:15:13.008Z,97084.81
2023-05-05T04:17:39.800Z,97092.47
2023-05-05T04:20:10.612Z,97101.56
2023-05-05T04:22:42.068Z,97097.91
2023-05-05T04:25:11.381Z,97087.06
2023-05-05T04:27:38.072Z,97089.16
2023-05-05T04:30:08.424Z,97094.50
2023-05-05T04:32:37.553Z,97094.25
2023-05-05T04:35:06.996Z,97094.34
2023-05-05T04:37:33.557Z,97094.16
2023-05-05T04:40:02.167Z,97096.97
2023-05-05T04:42:31.329Z,97096.78
2023-05-05T04:44:58.030Z,97088.41
2023-05-05T04:47:24.844Z,97095.47
2023-05-05T04:49:51.425Z,97099.00
2023-05-05T04:52:20.240Z,97106.25
2023-05-05T04:54:46.920Z,97103.81
2023-05-05T04:57:18.211Z,97098.19
2023-05-05T04:59:49.597Z,97117.75
2023-05-05T05:02:18.624Z,97105.66
2023-05-05T05:04:45.211Z,97113.63
2023-05-05T05:07:11.781Z,97113.06
2023-05-05T05:09:40.914Z,97108.69
2023-05-05T05:12:09.861Z,97106.06
2023-05-05T05:14:42.472Z,97114.34
2023-05-05T05:17:09.094Z,97106.25
2023-05-05T05:19:35.833Z,97112.88
2023-05-05T05:22:02.387Z,97124.16
2023-05-05T05:24:46.480Z,97127.28
2023-05-05T05:27:13.018Z,97123.66
2023-05-05T05:29:42.144Z,97125.59
2023-05-05T05:32:09.063Z,97115.16
2023-05-05T05:34:38.256Z,97123.00
2023-05-05T05:37:09.564Z,97128.06
2023-05-05T05:39:38.379Z,97127.41
2023-05-05T05:42:04.990Z,97123.59
2023-05-05T05:44:34.585Z,97128.94
2023-05-05T05:47:03.387Z,97117.97
2023-05-05T05:49:34.962Z,97121.81
2023-05-05T05:52:03.767Z,97123.91
2023-05-05T05:54:30.383Z,97115.88
2023-05-05T05:56:57.077Z,97111.09
2023-05-05T05:59:26.017Z,97124.47
2023-05-05T06:01:52.588Z,97123.72
2023-05-05T06:04:19.192Z,97121.66
2023-05-05T06:06:50.842Z,97126.97
2023-05-05T06:09:19.500Z,97129.25
2023-05-05T06:11:48.272Z,97131.41
2023-05-05T06:14:19.496Z,97128.72
2023-05-05T06:16:46.606Z,97129.22
2023-05-05T06:19:13.157Z,97137.38
2023-05-05T06:21:44.189Z,97126.69
2023-05-05T06:24:10.782Z,97130.50
2023-05-05T06:26:37.412Z,97132.78
2023-05-05T06:29:06.865Z,97130.63
2023-05-05T06:31:33.565Z,97128.63
2023-05-05T06:34:00.230Z,97125.72
2023-05-05T06:36:26.819Z,97129.34
2023-05-05T06:38:54.212Z,97134.22
2023-05-05T06:41:28.040Z,97128.63
2023-05-05T06:43:54.635Z,97130.34
2023-05-05T06:46:21.325Z,97133.69
2023-05-05T06:48:47.976Z,97134.47
2023-05-05T06:51:17.066Z,97132.66
2023-05-05T06:53:43.631Z,97124.84
2023-05-05T06:56:11.419Z,97129.72
2023-05-05T06:58:38.001Z,97126.22
2023-05-05T07:01:07.256Z,97120.19
2023-05-05T07:03:41.212Z,97116.13
2023-05-05T07:06:10.448Z,97119.50
2023-05-05T07:08:37.013Z,97121.91
2023-05-05T07:11:06.502Z,97122.59
2023-05-05T07:13:35.311Z,97114.00
2023-05-05T07:16:05.171Z,97123.41
2023-05-05T07:18:36.293Z,97116.78
2023-05-05T07:21:05.877Z,97118.47
2023-05-05T07:23:40.647Z,97119.91
2023-05-05T07:26:11.803Z,97111.38
2023-05-05T07:28:38.387Z,97108.88
2023-05-05T07:31:07.265Z,97108.16
2023-05-05T07:33:36.162Z,97108.91
2023-05-05T07:36:05.562Z,97109.31
2023-05-05T07:38:32.110Z,97104.44
2023-05-05T07:40:58.858Z,97100.19
2023-05-05T07:43:25.706Z,97102.31
2023-05-05T07:45:56.911Z,97100.16
2023-05-05T07:48:26.053Z,97098.63
2023-05-05T07:50:53.017Z,97102.75
2023-05-05T07:53:24.304Z,97100.81
2023-05-05T07:55:53.444Z,97103.00
2023-05-05T07:58:22.679Z,97096.59
2023-05-05T08:00:50.323Z,97089.81
2023-05-05T08:03:19.924Z,97083.69
2023-05-05T08:05:53.166Z,97078.91
2023-05-05T08:08:19.840Z,97073.78
2023-05-05T08:10:50.668Z,97075.91
2023-05-05T08:13:17.292Z,97073.03
2023-05-05T08:15:45.545Z,97068.59
2023-05-05T08:18:12.221Z,97072.59
2023-05-05T08:20:39.196Z,97071.31
2023-05-05T08:23:06.391Z,97067.56
2023-05-05T08:25:35.629Z,97068.38
2023-05-05T08:28:02.531Z,97070.09
2023-05-05T08:30:29.454Z,97065.06
2023-05-05T08:32:56.522Z,97067.44
2023-05-05T08:35:23.289Z,97074.53
2023-05-05T08:37:51.676Z,97072.59
2023-05-05T08:40:28.836Z,97067.44
2023-05-05T08:42:58.416Z,97067.34
2023-05-05T08:45:26.176Z,97070.47
2023-05-05T08:47:58.049Z,97075.56
2023-05-05T08:50:31.278Z,97057.19
2023-05-05T08:53:18.103Z,97057.81
2023-05-05T08:55:54.609Z,97055.53
2023-05-05T08:58:23.410Z,97049.75
2023-05-05T09:00:50.807Z,97053.41
2023-05-05T09:03:18.286Z,97045.44
2023-05-05T09:05:45.147Z,97053.59
2023-05-05T09:08:12.038Z,97045.41
2023-05-05T09:10:44.694Z,97047.69
2023-05-05T09:13:20.187Z,97048.75
2023-05-05T09:15:51.256Z,97044.88
2023-05-05T09:18:20.200Z,97043.88
2023-05-05T09:20:46.789Z,97052.34
2023-05-05T09:23:18.433Z,97056.63
2023-05-05T09:26:02.437Z,97041.38
2023-05-05T09:28:29.400Z,97035.72
2023-05-05T09:30:56.159Z,97026.75
2023-05-05T09:33:31.920Z,97024.94
2023-05-05T09:35:58.922Z,97018.13
2023-05-05T09:38:25.917Z,97025.88
2023-05-05T09:40:54.073Z,97022.09
2023-05-05T09:43:23.988Z,97020.78
2023-05-05T09:45:51.439Z,97010.72
2023-05-05T09:48:29.160Z,97015.78
2023-05-05T09:50:59.046Z,97008.75
2023-05-05T09:53:42.472Z,97007.38
2023-05-05T09:56:12.231Z,97005.06
2023-05-05T09:58:38.855Z,96994.50
2023-05-05T10:01:08.632Z,96999.50
2023-05-05T10:03:52.658Z,96998.81
2023-05-05T10:06:39.447Z,96996.69
2023-05-05T10:09:06.186Z,96987.03
2023-05-05T10:11:36.147Z,96984.16
2023-05-05T10:14:09.071Z,96984.28
2023-05-05T10:16:36.997Z,96974.75
2023-05-05T10:19:06.765Z,96980.28
2023-05-05T10:21:40.202Z,96972.72
2023-05-05T10:24:21.916Z,96973.91
2023-05-05T10:26:53.108Z,96965.19
2023-05-05T10:29:46.061Z,96965.88
2023-05-05T10:32:51.520Z,96958.47
2023-05-05T10:35:27.974Z,96955.50
2023-05-05T10:37:55.184Z,96947.91
2023-05-05T10:40:22.568Z,96947.41
2023-05-05T10:42:54.058Z,96952.69
2023-05-05T10:45:20.900Z,96943.88
2023-05-05T10:47:51.132Z,96951.94
2023-05-05T10:50:29.534Z,96946.16
2023-05-05T10:53:16.786Z,96936.59
2023-05-05T10:56:12.795Z,96937.34
2023-05-05T10:58:58.448Z,96932.31
2023-05-05T11:01:34.137Z,96923.66
2023-05-05T11:04:22.504Z,96921.44
2023-05-05T11:07:14.731Z,96913.16
2023-05-05T11:10:02.033Z,96916.69
2023-05-05T11:12:33.192Z,96905.88
2023-05-05T11:15:28.047Z,96906.31
2023-05-05T11:17:59.300Z,96903.91
2023-05-05T11:20:35.162Z,96899.63
2023-05-05T11:23:05.214Z,96890.72
2023-05-05T11:25:37.595Z,96898.31
2023-05-05T11:28:06.234Z,96901.75
2023-05-05T11:30:32.893Z,96893.31
2023-05-05T11:33:33.043Z,96897.16
2023-05-05T11:36:07.185Z,96892.16
2023-05-05T11:39:11.585Z,96887.72
2023-05-05T11:41:43.883Z,96882.22
2023-05-05T11:44:11.417Z,96889.66
2023-05-05T11:46:51.749Z,96884.34
2023-05-05T11:49:31.318Z,96886.00
2023-05-05T11:52:01.973Z,96886.97
2023-05-05T11:54:32.388Z,96876.63
2023-05-05T11:57:07.735Z,96878.03
2023-05-05T11:59:55.309Z,96873.16
2023-05-05T12:02:23.032Z,96874.94
2023-05-05T12:04:50.928Z,96881.72
2023-05-05T12:07:22.748Z,96865.81
2023-05-05T12:09:52.564Z,96866.13
2023-05-05T12:12:19.563Z,96865.22
2023-05-05T12:14:55.497Z,96850.97
2023-05-05T12:17:23.476Z,96846.69
2023-05-05T12:19:57.124Z,96843.19
2023-05-05T12:22:24.929Z,96840.50
2023-05-05T12:25:06.481Z,96838.06
2023-05-05T12:27:33.138Z,96832.94
2023-05-05T12:30:17.343Z,96828.97
2023-05-05T12:32:47.033Z,96827.09
2023-05-05T12:35:17.111Z,96825.19
2023-05-05T12:37:43.784Z,96823.47
2023-05-05T12:40:44.872Z,96812.25
2023-05-05T12:43:24.339Z,96803.59
2023-05-05T12:46:13.664Z,96796.63
2023-05-05T12:48:46.382Z,96800.59
2023-05-05T12:51:23.343Z,96791.03
2023-05-05T12:54:02.112Z,96787.03
2023-05-05T12:56:42.116Z,96789.94
2023-05-05T12:59:10.878Z,96789.19
2023-05-05T13:01:54.614Z,96780.25
2023-05-05T13:04:23.209Z,96775.16
2023-05-05T13:07:10.006Z,96759.63
2023-05-05T13:09:38.975Z,96765.00
2023-05-05T13:12:07.123Z,96745.94
2023-05-05T13:14:34.830Z,96739.50
2023-05-05T13:17:01.497Z,96734.38
2023-05-05T13:19:31.385Z,96733.41
2023-05-05T13:21:58.819Z,96743.31
2023-05-05T13:24:42.204Z,96748.34
2023-05-05T13:27:16.654Z,96758.03
2023-05-05T13:29:45.436Z,96760.06
2023-05-05T13:32:12.010Z,96744.47
2023-05-05T13:34:39.370Z,96738.84
2023-05-05T13:37:06.444Z,96744.66
2023-05-05T13:39:35.546Z,96740.47
2023-05-05T13:42:02.059Z,96738.34
2023-05-05T13:44:28.623Z,96734.13
2023-05-05T13:46:55.219Z,96734.97
2023-05-05T13:49:24.363Z,96732.13
2023-05-05T13:51:51.021Z,96735.09
2023-05-05T13:54:20.046Z,96734.94
2023-05-05T13:56:46.639Z,96724.44
2023-05-05T13:59:13.294Z,96718.25
2023-05-05T14:01:39.911Z,96724.59
2023-05-05T14:04:06.704Z,96725.72
2023-05-05T14:06:36.193Z,96708.38
2023-05-05T14:09:05.859Z,96707.63
2023-05-05T14:11:35.045Z,96706.34
2023-05-05T14:14:04.140Z,96712.44
2023-05-05T14:16:30.950Z,96711.16
2023-05-05T14:18:57.632Z,96719.22
2023-05-05T14:21:26.740Z,96726.03
2023-05-05T14:23:53.345Z,96729.31
2023-05-05T14:26:22.235Z,96744.66
2023-05-05T14:28:51.205Z,96736.34
2023-05-05T14:31:20.886Z,96747.81
2023-05-05T14:33:47.489Z,96753.59
2023-05-05T14:36:14.392Z,96757.06
2023-05-05T14:38:42.877Z,96759.75
2023-05-05T14:41:11.938Z,96767.28
2023-05-05T14:43:41.001Z,96765.41
2023-05-05T14:46:09.708Z,96777.06
2023-05-05T14:48:36.430Z,96785.25
2023-05-05T14:51:03.646Z,96807.91
2023-05-05T14:53:30.624Z,96820.53
2023-05-05T14:55:57.684Z,96826.41
2023-05-05T14:58:24.850Z,96835.25
2023-05-05T15:00:54.744Z,96838.19
2023-05-05T15:03:26.139Z,96835.06
2023-05-05T15:05:52.800Z,96829.41
2023-05-05T15:08:24.031Z,96858.16
2023-05-05T15:10:53.309Z,96870.19
2023-05-05T15:13:19.904Z,96865.59
2023-05-05T15:15:46.613Z,96854.09
2023-05-05T15:18:13.704Z,96860.19
2023-05-05T15:20:42.514Z,96867.03
2023-05-05T15:23:09.443Z,96850.88
2023-05-05T15:25:40.825Z,96865.19
2023-05-05T15:28:07.439Z,96852.66
2023-05-05T15:30:34.022Z,96836.50
2023-05-05T15:33:00.697Z,96817.19
2023-05-05T15:35:27.376Z,96787.22
2023-05-05T15:37:56.228Z,96799.06
2023-05-05T15:40:22.991Z,96797.78
2023-05-05T15:42:51.690Z,96792.94
2023-05-05T15:45:18.356Z,96785.84
2023-05-05T15:47:50.503Z,96789.25
2023-05-05T15:50:17.303Z,96772.03
2023-05-05T15:52:43.938Z,96757.97
2023-05-05T15:55:13.021Z,96773.25
2023-05-05T15:57:41.879Z,96772.69
2023-05-05T16:00:09.419Z,96791.84
2023-05-05T16:02:38.218Z,96802.72
2023-05-05T16:05:05.590Z,96804.81
2023-05-05T16:07:32.279Z,96791.75
2023-05-05T16:10:03.651Z,96806.13
2023-05-05T16:12:32.763Z,96807.22
2023-05-05T16:15:03.940Z,96824.44
2023-05-05T16:17:31.218Z,96829.41
2023-05-05T16:19:57.799Z,96821.75
2023-05-05T16:22:24.390Z,96867.00
2023-05-05T16:24:53.137Z,96879.56
2023-05-05T16:27:19.746Z,96886.81
2023-05-05T16:29:48.480Z,96897.66
2023-05-05T16:32:15.320Z,96900.06
2023-05-05T16:34:44.492Z,96899.88
2023-05-05T16:37:11.127Z,96905.59
2023-05-05T16:39:40.425Z,96916.28
2023-05-05T16:42:13.407Z,96919.63
2023-05-05T16:44:40.535Z,96922.78
2023-05-05T16:47:10.108Z,96921.09
2023-05-05T16:49:38.886Z,96921.97
2023-05-05T16:52:05.586Z,96909.69
2023-05-05T16:54:32.401Z,96911.53
2023-05-05T16:56:58.953Z,96899.63
2023-05-05T16:59:25.487Z,96901.78
2023-05-05T17:01:54.406Z,96897.44
2023-05-05T17:04:23.994Z,96893.22
2023-05-05T17:06:50.903Z,96902.81
2023-05-05T17:09:24.749Z,96903.59
2023-05-05T17:11:54.194Z,96900.91
2023-05-05T17:14:27.435Z,96907.97
2023-05-05T17:16:56.292Z,96921.16
2023-05-05T17:19:22.863Z,96931.00
2023-05-05T17:21:51.827Z,96922.97
2023-05-05T17:24:18.436Z,96928.69
2023-05-05T17:26:45.025Z,96937.66
2023-05-05T17:29:19.806Z,96934.28
2023-05-05T17:31:50.265Z,96936.25
2023-05-05T17:34:19.242Z,96942.78
2023-05-05T17:36:45.919Z,96942.81
2023-05-05T17:39:12.846Z,96943.00
2023-05-05T17:41:39.469Z,96947.88
2023-05-05T17:44:06.055Z,96954.13
2023-05-05T17:46:33.086Z,96962.50
2023-05-05T17:49:00.618Z,96960.56
2023-05-05T17:51:27.473Z,96962.41
2023-05-05T17:53:54.041Z,96961.06
2023-05-05T17:56:22.718Z,96968.09
2023-05-05T17:58:49.375Z,96966.25
2023-05-05T18:01:30.070Z,96956.66
2023-05-05T18:03:57.362Z,96958.44
2023-05-05T18:06:23.937Z,96959.00
2023-05-05T18:08:52.910Z,96971.75
2023-05-05T18:11:21.306Z,96976.31
2023-05-05T18:13:47.958Z,96969.00
2023-05-05T18:16:14.603Z,96964.16
2023-05-05T18:18:43.792Z,96969.16
2023-05-05T18:21:12.631Z,96973.88
2023-05-05T18:23:40.159Z,96975.41
2023-05-05T18:26:07.121Z,96979.34
2023-05-05T18:28:35.942Z,96977.97
2023-05-05T18:31:02.522Z,96983.91
2023-05-05T18:33:29.108Z,96983.63
2023-05-05T18:35:56.486Z,96981.84
2023-05-05T18:38:25.592Z,96983.66
2023-05-05T18:40:54.791Z,96983.66
2023-05-05T18:43:21.319Z,96982.78
2023-05-05T18:45:52.811Z,96992.09
2023-05-05T18:48:21.865Z,96988.28
2023-05-05T18:50:49.929Z,96988.25
2023-05-05T18:53:21.371Z,96980.19
2023-05-05T18:55:50.999Z,96991.47
2023-05-05T18:58:17.642Z,97000.44
2023-05-05T19:00:44.341Z,96999.06
2023-05-05T19:03:15.501Z,96998.31
2023-05-05T19:05:44.704Z,96999.53
2023-05-05T19:08:11.246Z,97010.28
2023-05-05T19:10:37.862Z,97006.34
2023-05-05T19:13:09.304Z,97017.66
2023-05-05T19:15:35.933Z,97024.81
2023-05-05T19:18:07.464Z,97025.59
2023-05-05T19:20:34.245Z,97027.41
2023-05-05T19:23:04.025Z,97024.03
2023-05-05T19:25:36.432Z,97022.00
2023-05-05T19:28:03.059Z,97021.53
2023-05-05T19:30:30.371Z,97028.19
2023-05-05T19:33:01.767Z,97027.25
2023-05-05T19:35:29.581Z,97026.41
2023-05-05T19:37:56.245Z,97025.09
2023-05-05T19:40:23.099Z,97026.28
2023-05-05T19:42:49.957Z,97031.88
2023-05-05T19:45:19.149Z,97043.66
2023-05-05T19:47:46.240Z,97031.19
2023-05-05T19:50:15.361Z,97039.72
2023-05-05T19:52:44.476Z,97046.88
2023-05-05T19:55:15.798Z,97045.78
2023-05-05T19:57:42.396Z,97049.69
2023-05-05T20:00:12.084Z,97047.84
2023-05-05T20:02:38.943Z,97045.88
2023-05-05T20:05:06.124Z,97050.00
2023-05-05T20:07:37.577Z,97047.34
2023-05-05T20:10:07.116Z,97048.13
2023-05-05T20:12:34.255Z,97037.25
2023-05-05T20:15:03.239Z,97043.16
2023-05-05T20:17:32.068Z,97042.22
2023-05-05T20:20:00.930Z,97037.06
2023-05-05T20:22:27.552Z,97042.03
2023-05-05T20:24:54.155Z,97048.59
2023-05-05T20:27:21.531Z,97049.03
2023-05-05T20:29:50.540Z,97044.19
2023-05-05T20:32:20.465Z,97046.72
2023-05-05T20:34:48.178Z,97057.47
2023-05-05T20:37:14.885Z,97056.00
2023-05-05T20:39:43.833Z,97048.84
2023-05-05T20:42:10.943Z,97051.09
2023-05-05T20:44:42.171Z,97054.00
2023-05-05T20:47:08.828Z,97058.03
2023-05-05T20:49:37.979Z,97060.78
2023-05-05T20:52:07.328Z,97063.06
2023-05-05T20:54:36.369Z,97057.47
2023-05-05T20:57:03.141Z,97054.81
2023-05-05T20:59:30.130Z,97059.19
2023-05-05T21:01:58.064Z,97058.69
2023-05-05T21:04:24.941Z,97056.72
2023-05-05T21:06:51.607Z,97065.81
2023-05-05T21:09:21.571Z,97059.25
2023-05-05T21:11:50.568Z,97061.81
2023-05-05T21:14:17.687Z,97060.56
2023-05-05T21:16:46.855Z,97060.50
2023-05-05T21:19:16.450Z,97067.13
2023-05-05T21:21:45.600Z,97058.03
2023-05-05T21:24:13.231Z,97060.31
2023-05-05T21:26:48.354Z,97060.31
2023-05-05T21:29:14.987Z,97053.47
2023-05-05T21:31:44.485Z,97057.25
2023-05-05T21:34:13.940Z,97055.75
2023-05-05T21:36:45.343Z,97049.06
2023-05-05T21:39:12.235Z,97051.19
2023-05-05T21:41:41.495Z,97050.41
2023-05-05T21:44:08.037Z,97049.91
2023-05-05T21:46:34.661Z,97038.41
2023-05-05T21:49:12.780Z,97036.88
2023-05-05T21:51:44.721Z,97023.97
2023-05-05T21:54:11.351Z,97029.34
2023-05-05T21:56:38.600Z,97032.81
2023-05-05T21:59:07.672Z,97035.78
2023-05-05T22:01:37.196Z,97022.94
2023-05-05T22:04:04.043Z,97027.19
2023-05-05T22:06:30.877Z,97020.84
2023-05-05T22:08:57.413Z,97014.38
2023-05-05T22:11:24.156Z,97019.38
2023-05-05T22:13:50.819Z,97017.44
2023-05-05T22:16:18.373Z,97022.47
2023-05-05T22:18:48.717Z,97022.47
2023-05-05T22:21:20.012Z,97026.19
2023-05-05T22:23:48.992Z,97025.03
2023-05-05T22:26:15.675Z,97014.75
2023-05-05T22:28:42.314Z,97024.56
2023-05-05T22:31:08.925Z,97026.66
2023-05-05T22:33:36.228Z,97015.59
2023-05-05T22:36:05.092Z,97017.47
2023-05-05T22:38:31.665Z,97019.44
2023-05-05T22:40:58.238Z,97022.84
2023-05-05T22:43:24.905Z,97025.56
2023-05-05T22:45:53.700Z,97015.59
2023-05-05T22:48:22.917Z,97020.00
2023-05-05T22:50:51.708Z,97027.19
2023-05-05T22:53:20.733Z,97027.75
2023-05-05T22:55:52.161Z,97034.84
2023-05-05T22:58:21.170Z,97027.34
2023-05-05T23:00:47.835Z,97032.22
2023-05-05T23:03:17.517Z,97026.53
2023-05-05T23:05:46.559Z,97028.16
2023-05-05T23:08:13.139Z,97030.44
2023-05-05T23:10:41.728Z,97024.88
2023-05-05T23:13:10.757Z,97029.13
2023-05-05T23:15:42.326Z,97020.38
2023-05-05T23:18:13.664Z,97022.81
2023-05-05T23:20:45.134Z,97022.41
2023-05-05T23:23:11.687Z,97024.06
2023-05-05T23:25:40.853Z,97016.75
2023-05-05T23:28:07.452Z,97023.41
2023-05-05T23:30:36.451Z,97021.75
2023-05-05T23:33:04.034Z,97029.38
2023-05-05T23:35:34.216Z,97023.25
2023-05-05T23:38:03.121Z,97030.00
2023-05-05T23:40:29.632Z,97026.53
2023-05-05T23:42:56.213Z,97021.72
2023-05-05T23:45:22.806Z,97026.31
2023-05-05T23:47:52.452Z,97007.53
2023-05-05T23:50:19.043Z,97010.56
2023-05-05T23:52:45.767Z,97010.28
2023-05-05T23:55:16.787Z,96993.13
2023-05-05T23:57:43.462Z,96990.75
